createdAt,value
2023-04-04T00:00:50.588Z,13.82
2023-04-04T00:05:56.799Z,14.15
2023-04-04T00:11:01.530Z,19.85
2023-04-04T00:16:06.196Z,19.08
2023-04-04T00:21:11.709Z,16.20
2023-04-04T00:26:17.582Z,18.08
2023-04-04T00:31:22.942Z,14.55
2023-04-04T00:36:28.506Z,14.68
2023-04-04T00:46:36.702Z,16.35
2023-04-04T00:51:42.237Z,14.85
2023-04-04T00:56:46.527Z,12.52
2023-04-04T01:01:51.044Z,13.30
2023-04-04T01:06:56.960Z,19.10
2023-04-04T01:12:02.433Z,16.88
2023-04-04T01:17:09.311Z,16.13
2023-04-04T01:22:16.007Z,14.70
2023-04-04T01:27:22.533Z,18.95
2023-04-04T01:32:47.219Z,12.57
2023-04-04T01:38:03.076Z,16.05
2023-04-04T01:43:10.014Z,13.35
2023-04-04T01:48:17.380Z,14.07
2023-04-04T01:53:25.809Z,16.27
2023-04-04T01:58:31.402Z,11.75
2023-04-04T02:03:35.907Z,14.02
2023-04-04T02:08:40.186Z,14.88
2023-04-04T02:13:47.924Z,15.55
2023-04-04T02:18:55.439Z,13.50
2023-04-04T02:24:00.042Z,17.55
2023-04-04T02:29:06.512Z,12.30
2023-04-04T02:39:14.737Z,14.90
2023-04-04T02:44:20.455Z,11.77
2023-04-04T02:49:29.793Z,11.25
2023-04-04T02:54:34.836Z,8.15
2023-04-04T02:59:42.080Z,12.23
2023-04-04T03:09:54.816Z,10.48
2023-04-04T03:15:03.839Z,13.18
2023-04-04T03:20:15.647Z,10.88
2023-04-04T03:25:24.718Z,11.07
2023-04-04T03:30:33.760Z,8.63
2023-04-04T03:35:42.453Z,10.75
2023-04-04T03:40:49.846Z,10.60
2023-04-04T03:46:03.231Z,12.90
2023-04-04T03:51:10.332Z,10.35
2023-04-04T03:56:16.856Z,11.00
2023-04-04T04:01:24.975Z,9.63
2023-04-04T04:06:32.592Z,11.27
2023-04-04T04:11:39.764Z,9.02
2023-04-04T04:16:48.679Z,10.57
2023-04-04T04:22:01.160Z,11.13
2023-04-04T04:27:09.922Z,10.45
2023-04-04T04:32:20.516Z,15.88
2023-04-04T04:37:32.715Z,13.73
2023-04-04T04:42:45.682Z,13.90
2023-04-04T04:47:56.537Z,10.32
2023-04-04T04:53:03.336Z,10.10
2023-04-04T04:58:11.463Z,9.77
2023-04-04T05:03:25.461Z,11.05
2023-04-04T05:08:33.078Z,12.88
2023-04-04T05:13:46.972Z,11.73
2023-04-04T05:18:56.675Z,12.07
2023-04-04T05:24:02.991Z,12.32
2023-04-04T05:34:22.499Z,15.05
2023-04-04T05:39:31.486Z,16.35
2023-04-04T05:44:43.069Z,13.63
2023-04-04T05:49:52.615Z,12.93
2023-04-04T05:55:00.052Z,12.40
2023-04-04T06:00:12.738Z,10.48
2023-04-04T06:05:20.472Z,9.77
2023-04-04T06:10:27.187Z,13.48
2023-04-04T06:15:36.933Z,15.27
2023-04-04T06:20:45.755Z,19.50
2023-04-04T06:25:52.525Z,10.48
2023-04-04T06:31:00.327Z,11.60
2023-04-04T06:36:12.593Z,30.58
2023-04-04T06:41:19.969Z,12.68
2023-04-04T06:46:28.198Z,11.82
2023-04-04T06:51:36.451Z,14.10
2023-04-04T06:56:43.258Z,13.70
2023-04-04T07:01:48.301Z,10.30
2023-04-04T07:06:53.868Z,8.65
2023-04-04T07:12:00.338Z,13.27
2023-04-04T07:17:10.860Z,11.65
2023-04-04T07:22:25.013Z,9.52
2023-04-04T07:27:31.873Z,10.55
2023-04-04T07:32:38.441Z,11.48
2023-04-04T07:37:45.194Z,10.27
2023-04-04T07:42:52.291Z,10.13
2023-04-04T07:47:59.748Z,11.68
2023-04-04T07:53:07.119Z,18.58
2023-04-04T07:58:14.299Z,9.50
2023-04-04T08:03:20.312Z,8.30
2023-04-04T08:08:27.272Z,7.53
2023-04-04T08:13:33.362Z,7.97
2023-04-04T08:18:41.201Z,8.40
2023-04-04T08:23:50.012Z,5.95
2023-04-04T08:28:57.519Z,6.25
2023-04-04T08:34:03.336Z,7.50
2023-04-04T08:39:11.770Z,8.40
2023-04-04T08:44:20.518Z,5.90
2023-04-04T08:49:28.035Z,6.30
2023-04-04T08:54:37.468Z,6.88
2023-04-04T08:59:44.829Z,6.28
2023-04-04T09:05:05.033Z,7.13
2023-04-04T09:10:13.983Z,4.60
2023-04-04T09:15:20.719Z,5.07
2023-04-04T09:20:41.206Z,6.88
2023-04-04T09:31:05.273Z,6.68
2023-04-04T09:36:13.425Z,7.95
2023-04-04T09:41:21.800Z,5.18
2023-04-04T09:46:29.018Z,6.70
2023-04-04T09:51:39.484Z,6.65
2023-04-04T09:56:47.777Z,8.82
2023-04-04T10:01:57.275Z,7.45
2023-04-04T10:07:04.920Z,5.45
2023-04-04T10:12:17.770Z,5.57
2023-04-04T10:17:26.278Z,5.15
2023-04-04T10:22:34.354Z,3.33
2023-04-04T10:27:40.933Z,3.85
2023-04-04T10:33:05.403Z,5.18
2023-04-04T10:38:13.070Z,7.47
2023-04-04T10:43:29.390Z,4.55
2023-04-04T10:48:37.417Z,6.00
2023-04-04T10:53:46.028Z,8.00
2023-04-04T10:59:09.848Z,3.92
2023-04-04T11:04:21.964Z,4.32
2023-04-04T11:09:50.763Z,5.78
2023-04-04T11:15:09.928Z,5.30
2023-04-04T11:20:19.368Z,6.82
2023-04-04T11:25:35.311Z,5.93
2023-04-04T11:30:51.934Z,6.50
2023-04-04T11:36:02.039Z,7.18
2023-04-04T11:41:08.059Z,7.30
2023-04-04T11:46:20.380Z,4.68
2023-04-04T11:51:32.109Z,5.18
2023-04-04T11:56:39.705Z,5.25
2023-04-04T12:01:48.449Z,6.57
2023-04-04T12:06:57.213Z,9.25
2023-04-04T12:12:05.629Z,5.68
2023-04-04T12:17:15.931Z,6.47
2023-04-04T12:22:22.991Z,4.85
2023-04-04T12:27:30.446Z,6.93
2023-04-04T12:32:36.929Z,10.70
2023-04-04T12:42:52.422Z,4.60
2023-04-04T12:48:00.486Z,5.00
2023-04-04T12:53:27.378Z,5.97
2023-04-04T12:58:38.159Z,4.75
2023-04-04T13:03:47.278Z,6.38
2023-04-04T13:08:55.458Z,6.03
2023-04-04T13:14:04.481Z,10.02
2023-04-04T13:19:10.426Z,6.75
2023-04-04T13:24:16.320Z,6.35
2023-04-04T13:29:25.141Z,4.50
2023-04-04T13:34:34.630Z,7.70
2023-04-04T13:39:40.168Z,7.68
2023-04-04T13:44:45.342Z,6.13
2023-04-04T13:49:51.649Z,7.63
2023-04-04T13:54:58.040Z,6.03
2023-04-04T14:00:02.973Z,4.55
2023-04-04T14:05:15.260Z,7.30
2023-04-04T14:10:19.574Z,10.68
2023-04-04T14:15:25.849Z,5.90
2023-04-04T14:20:34.688Z,6.85
2023-04-04T14:25:40.198Z,10.32
2023-04-04T14:30:44.564Z,13.98
2023-04-04T14:35:51.122Z,9.15
2023-04-04T14:40:55.462Z,16.20
2023-04-04T14:46:00.412Z,14.70
2023-04-04T14:51:09.810Z,6.50
2023-04-04T14:56:14.917Z,7.78
2023-04-04T15:01:22.508Z,8.68
2023-04-04T15:06:32.057Z,11.68
2023-04-04T15:11:38.315Z,7.43
2023-04-04T15:16:43.492Z,5.63
2023-04-04T15:21:49.593Z,8.35
2023-04-04T15:26:55.751Z,10.18
2023-04-04T15:32:00.415Z,10.85
2023-04-04T15:37:06.019Z,11.38
2023-04-04T15:42:10.102Z,14.55
2023-04-04T15:47:14.128Z,8.75
2023-04-04T15:52:19.438Z,12.57
2023-04-04T15:57:23.528Z,8.55
2023-04-04T16:02:27.559Z,9.65
2023-04-04T16:07:33.194Z,15.30
2023-04-04T16:12:39.855Z,10.82
2023-04-04T16:17:43.910Z,9.68
2023-04-04T16:22:49.283Z,11.30
2023-04-04T16:27:53.282Z,14.15
2023-04-04T16:32:57.199Z,13.38
2023-04-04T16:38:02.519Z,19.40
2023-04-04T16:43:06.634Z,18.95
2023-04-04T16:48:10.759Z,15.80
2023-04-04T16:53:16.303Z,15.25
2023-04-04T16:58:20.590Z,14.27
2023-04-04T17:03:24.530Z,10.10
2023-04-04T17:08:29.898Z,10.07
2023-04-04T17:13:34.049Z,12.50
2023-04-04T17:18:38.054Z,13.65
2023-04-04T17:23:43.429Z,14.05
2023-04-04T17:28:47.323Z,15.30
2023-04-04T17:33:51.477Z,19.80
2023-04-04T17:38:56.850Z,16.92
2023-04-04T17:44:01.028Z,18.80
2023-04-04T17:49:05.153Z,16.73
2023-04-04T17:54:10.624Z,20.88
2023-04-04T17:59:14.917Z,11.43
2023-04-04T18:04:19.457Z,19.08
2023-04-04T18:09:25.436Z,16.67
2023-04-04T18:14:29.517Z,30.27
2023-04-04T18:19:33.548Z,18.83
2023-04-04T18:24:38.905Z,19.27
2023-04-04T18:29:43.146Z,18.02
2023-04-04T18:34:47.308Z,19.35
2023-04-04T18:39:52.822Z,19.35
2023-04-04T18:45:01.387Z,19.00
2023-04-04T18:50:06.048Z,14.00
2023-04-04T18:55:12.269Z,11.45
2023-04-04T19:00:17.148Z,13.93
2023-04-04T19:05:24.358Z,12.30
2023-04-04T19:10:30.365Z,14.75
2023-04-04T19:15:34.883Z,12.48
2023-04-04T19:20:42.063Z,12.65
2023-04-04T19:25:47.446Z,20.05
2023-04-04T19:30:54.358Z,19.08
2023-04-04T19:36:01.030Z,24.90
2023-04-04T19:41:09.682Z,25.25
2023-04-04T19:46:15.377Z,21.08
2023-04-04T19:51:52.646Z,19.08
2023-04-04T19:57:03.352Z,24.13
2023-04-04T20:02:08.306Z,22.10
2023-04-04T20:07:12.422Z,15.95
2023-04-04T20:12:19.489Z,18.08
2023-04-04T20:17:23.461Z,20.75
2023-04-04T20:22:27.433Z,18.80
2023-04-04T20:27:33.344Z,22.33
2023-04-04T20:32:37.291Z,26.25
2023-04-04T20:37:41.346Z,24.98
2023-04-04T20:42:47.869Z,25.63
2023-04-04T20:47:53.842Z,29.50
2023-04-04T20:52:59.413Z,32.90
2023-04-04T20:58:10.779Z,19.23
2023-04-04T21:03:30.266Z,25.13
2023-04-04T21:08:48.000Z,22.02
2023-04-04T21:13:53.359Z,20.60
2023-04-04T21:18:59.918Z,23.52
2023-04-04T21:24:06.940Z,24.83
2023-04-04T21:29:21.865Z,22.17
2023-04-04T21:34:27.918Z,18.67
2023-04-04T21:39:32.430Z,24.02
2023-04-04T21:44:38.548Z,24.90
2023-04-04T21:49:42.593Z,25.05
2023-04-04T21:54:46.522Z,20.88
2023-04-04T21:59:51.858Z,23.15
2023-04-04T22:04:57.299Z,20.05
2023-04-04T22:10:04.362Z,15.80
2023-04-04T22:15:11.702Z,16.05
2023-04-04T22:20:15.891Z,13.50
2023-04-04T22:25:19.952Z,14.38
2023-04-04T22:30:26.040Z,14.32
2023-04-04T22:35:30.410Z,21.15
2023-04-04T22:40:35.702Z,16.35
2023-04-04T22:45:41.048Z,17.13
2023-04-04T22:50:49.762Z,16.08
2023-04-04T22:55:58.396Z,18.08
2023-04-04T23:01:03.860Z,19.33
2023-04-04T23:06:08.081Z,17.60
2023-04-04T23:11:12.024Z,18.40
2023-04-04T23:16:17.731Z,17.95
2023-04-04T23:21:21.886Z,20.20
2023-04-04T23:26:27.296Z,17.13
2023-04-04T23:31:32.735Z,17.13
2023-04-04T23:36:36.702Z,22.15
2023-04-04T23:41:40.841Z,19.45
2023-04-04T23:46:46.701Z,22.52
2023-04-04T23:51:51.033Z,20.85
2023-04-04T23:56:54.994Z,20.50
